createdAt,value
2019-05-19T00:01:15.787Z,22.40
2019-05-19T00:03:45.295Z,23.20
2019-05-19T00:06:15.223Z,22.23
2019-05-19T00:08:44.461Z,25.07
2019-05-19T00:11:14.048Z,26.03
2019-05-19T00:13:43.315Z,27.50
2019-05-19T00:16:12.585Z,27.10
2019-05-19T00:18:42.113Z,26.53
2019-05-19T00:21:11.940Z,26.13
2019-05-19T00:23:41.458Z,25.13
2019-05-19T00:26:10.673Z,27.20
2019-05-19T00:28:39.921Z,31.97
2019-05-19T00:31:09.160Z,27.43
2019-05-19T00:33:39.072Z,35.90
2019-05-19T00:36:08.295Z,31.10
2019-05-19T00:38:37.523Z,34.47
2019-05-19T00:41:06.859Z,30.23
2019-05-19T00:43:36.076Z,43.83
2019-05-19T00:46:05.427Z,31.60
2019-05-19T00:48:34.939Z,27.13
2019-05-19T00:51:04.467Z,28.03
2019-05-19T00:53:34.132Z,28.57
2019-05-19T00:56:03.399Z,28.07
2019-05-19T00:58:34.130Z,31.03
2019-05-19T01:01:03.616Z,32.83
2019-05-19T01:03:33.169Z,35.43
2019-05-19T01:06:02.400Z,30.90
2019-05-19T01:08:31.747Z,33.83
2019-05-19T01:11:00.956Z,35.50
2019-05-19T01:13:30.213Z,35.33
2019-05-19T01:15:59.455Z,35.40
2019-05-19T01:18:28.701Z,30.60
2019-05-19T01:20:58.474Z,36.97
2019-05-19T01:23:27.705Z,37.13
2019-05-19T01:25:56.941Z,34.20
2019-05-19T01:28:26.617Z,32.17
2019-05-19T01:30:55.851Z,38.17
2019-05-19T01:33:25.450Z,40.80
2019-05-19T01:35:54.676Z,36.10
2019-05-19T01:38:24.488Z,36.83
2019-05-19T01:40:53.740Z,37.10
2019-05-19T01:43:22.975Z,36.60
2019-05-19T01:45:52.200Z,34.07
2019-05-19T01:48:21.715Z,36.50
2019-05-19T01:50:51.213Z,35.43
2019-05-19T01:53:20.455Z,39.73
2019-05-19T01:55:49.956Z,41.17
2019-05-19T01:58:19.178Z,39.90
2019-05-19T02:00:48.404Z,37.10
2019-05-19T02:03:17.613Z,40.47
2019-05-19T02:05:46.930Z,42.07
2019-05-19T02:08:16.542Z,38.50
2019-05-19T02:10:45.792Z,42.23
2019-05-19T02:14:59.418Z,42.93
2019-05-19T02:17:29.667Z,42.17
2019-05-19T02:19:58.901Z,41.27
2019-05-19T02:22:28.673Z,48.57
2019-05-19T02:24:57.899Z,44.83
2019-05-19T02:27:27.476Z,38.70
2019-05-19T02:29:56.844Z,42.97
2019-05-19T02:32:26.750Z,36.93
2019-05-19T02:34:55.974Z,38.30
2019-05-19T02:37:25.480Z,41.93
2019-05-19T02:39:55.015Z,43.00
2019-05-19T02:42:25.826Z,43.10
2019-05-19T02:44:55.830Z,39.47
2019-05-19T02:47:25.357Z,52.03
2019-05-19T02:49:56.472Z,43.90
2019-05-19T02:52:27.271Z,45.80
2019-05-19T02:54:56.859Z,48.13
2019-05-19T02:57:26.122Z,47.17
2019-05-19T02:59:55.764Z,48.83
2019-05-19T03:02:25.143Z,47.03
2019-05-19T03:04:54.368Z,53.20
2019-05-19T03:07:23.599Z,54.27
2019-05-19T03:09:53.140Z,48.30
2019-05-19T03:12:22.727Z,52.00
2019-05-19T03:14:52.313Z,50.93
2019-05-19T03:17:21.559Z,49.20
2019-05-19T03:19:50.804Z,59.53
2019-05-19T03:22:20.037Z,46.90
2019-05-19T03:24:49.284Z,60.93
2019-05-19T03:27:18.526Z,47.93
2019-05-19T03:29:52.807Z,54.30
2019-05-19T03:32:44.713Z,51.57
2019-05-19T03:35:13.975Z,59.00
2019-05-19T03:37:43.194Z,61.17
2019-05-19T03:40:21.399Z,55.57
2019-05-19T03:42:51.308Z,64.17
2019-05-19T03:45:20.815Z,64.80
2019-05-19T03:47:50.359Z,60.57
2019-05-19T03:50:19.599Z,59.88
2019-05-19T03:52:48.899Z,66.60
2019-05-19T03:55:18.343Z,64.30
2019-05-19T03:57:47.912Z,66.73
2019-05-19T04:00:17.376Z,67.70
2019-05-19T04:02:47.022Z,63.37
2019-05-19T04:05:16.624Z,66.70
2019-05-19T04:07:45.839Z,72.07
2019-05-19T04:10:16.237Z,76.97
2019-05-19T04:12:45.443Z,78.23
2019-05-19T04:15:15.831Z,79.10
2019-05-19T04:17:46.217Z,82.33
2019-05-19T04:20:16.124Z,77.10
2019-05-19T04:22:45.344Z,69.63
2019-05-19T04:25:14.577Z,76.87
2019-05-19T04:27:43.885Z,71.97
2019-05-19T04:30:13.521Z,65.10
2019-05-19T04:32:42.751Z,70.87
2019-05-19T04:35:12.195Z,70.03
2019-05-19T04:37:41.474Z,69.63
2019-05-19T04:40:11.448Z,75.37
2019-05-19T04:42:41.010Z,73.60
2019-05-19T04:45:10.438Z,74.07
2019-05-19T04:47:40.254Z,67.13
2019-05-19T04:50:09.996Z,74.77
2019-05-19T04:52:39.325Z,61.00
2019-05-19T04:55:09.066Z,77.53
2019-05-19T04:57:38.326Z,60.13
2019-05-19T05:00:08.521Z,64.63
2019-05-19T05:02:37.758Z,58.17
2019-05-19T05:05:07.356Z,62.67
2019-05-19T05:07:36.596Z,60.83
2019-05-19T05:10:07.022Z,59.70
2019-05-19T05:12:36.283Z,64.27
2019-05-19T05:15:06.245Z,67.23
2019-05-19T05:17:35.496Z,61.50
2019-05-19T05:20:04.963Z,58.00
2019-05-19T05:22:34.189Z,56.30
2019-05-19T05:25:03.451Z,58.77
2019-05-19T05:27:33.163Z,53.90
2019-05-19T05:30:02.494Z,65.77
2019-05-19T05:32:31.719Z,56.40
2019-05-19T05:35:00.977Z,63.10
2019-05-19T05:37:30.508Z,59.40
2019-05-19T05:40:00.710Z,59.77
2019-05-19T05:42:31.878Z,53.73
2019-05-19T05:45:01.388Z,53.23
2019-05-19T05:47:30.655Z,55.20
2019-05-19T05:50:00.378Z,55.63
2019-05-19T05:52:38.055Z,53.47
2019-05-19T05:55:00.933Z,51.13
2019-05-19T05:57:30.158Z,54.05
2019-05-19T06:00:00.065Z,55.17
2019-05-19T06:02:30.014Z,54.00
2019-05-19T06:04:59.277Z,55.07
2019-05-19T06:07:28.495Z,57.73
2019-05-19T06:09:57.777Z,55.10
2019-05-19T06:12:27.007Z,60.80
2019-05-19T06:14:56.328Z,57.40
2019-05-19T06:17:25.636Z,55.40
2019-05-19T06:19:54.855Z,56.20
2019-05-19T06:22:24.217Z,53.30
2019-05-19T06:24:53.427Z,54.07
2019-05-19T06:27:22.699Z,53.83
2019-05-19T06:29:52.089Z,54.33
2019-05-19T06:32:43.422Z,52.30
2019-05-19T06:35:13.410Z,52.53
2019-05-19T06:37:42.672Z,53.80
2019-05-19T06:40:12.095Z,60.10
2019-05-19T06:42:42.677Z,56.47
2019-05-19T06:45:12.291Z,60.20
2019-05-19T06:47:41.536Z,55.60
2019-05-19T06:50:11.090Z,58.07
2019-05-19T06:52:40.333Z,65.57
2019-05-19T06:57:17.365Z,53.47
2019-05-19T06:59:46.626Z,55.37
2019-05-19T07:02:16.497Z,53.83
2019-05-19T07:04:46.393Z,58.47
2019-05-19T07:07:15.942Z,58.40
2019-05-19T07:09:57.474Z,56.93
2019-05-19T07:12:16.444Z,55.60
2019-05-19T07:14:47.107Z,64.40
2019-05-19T07:17:16.345Z,54.13
2019-05-19T07:19:45.784Z,53.43
2019-05-19T07:22:15.019Z,57.50
2019-05-19T07:24:44.516Z,56.57
2019-05-19T07:27:13.865Z,52.37
2019-05-19T07:29:43.081Z,53.60
2019-05-19T07:32:12.336Z,51.63
2019-05-19T07:34:41.924Z,58.60
2019-05-19T07:37:11.839Z,53.80
2019-05-19T07:39:41.216Z,48.47
2019-05-19T07:42:10.469Z,52.30
2019-05-19T07:44:41.153Z,52.47
2019-05-19T07:47:10.377Z,55.17
2019-05-19T07:49:40.093Z,51.57
2019-05-19T07:52:09.353Z,56.50
2019-05-19T07:54:38.568Z,53.30
2019-05-19T07:57:08.275Z,53.43
2019-05-19T07:59:37.562Z,56.70
2019-05-19T08:02:06.816Z,53.47
2019-05-19T08:04:36.336Z,45.57
2019-05-19T08:07:05.636Z,46.33
2019-05-19T08:09:35.026Z,52.40
2019-05-19T08:12:04.510Z,48.30
2019-05-19T08:14:34.020Z,55.40
2019-05-19T08:17:03.311Z,46.10
2019-05-19T08:19:32.533Z,53.60
2019-05-19T08:22:02.223Z,45.05
2019-05-19T08:24:31.486Z,49.20
2019-05-19T08:27:01.039Z,45.13
2019-05-19T08:29:30.302Z,42.40
2019-05-19T08:31:59.887Z,49.57
2019-05-19T08:34:29.124Z,41.50
2019-05-19T08:36:58.367Z,40.77
2019-05-19T08:39:27.610Z,42.07
2019-05-19T08:41:57.040Z,42.60
2019-05-19T08:44:26.267Z,44.37
2019-05-19T08:46:56.174Z,44.40
2019-05-19T08:49:25.986Z,44.10
2019-05-19T08:51:55.285Z,46.63
2019-05-19T08:54:24.526Z,43.03
2019-05-19T08:56:53.770Z,45.37
2019-05-19T08:59:23.182Z,48.30
2019-05-19T09:01:52.439Z,73.83
2019-05-19T09:04:21.770Z,41.17
2019-05-19T09:06:51.292Z,43.80
2019-05-19T09:09:20.867Z,40.47
2019-05-19T09:11:50.110Z,40.00
2019-05-19T09:14:19.386Z,37.47
2019-05-19T09:16:48.706Z,39.67
2019-05-19T09:19:17.940Z,43.03
2019-05-19T09:21:47.204Z,42.53
2019-05-19T09:24:29.503Z,40.13
2019-05-19T09:26:47.763Z,45.93
2019-05-19T09:29:17.002Z,42.70
2019-05-19T09:31:46.293Z,40.10
2019-05-19T09:34:15.525Z,40.07
2019-05-19T09:36:44.796Z,39.30
2019-05-19T09:39:14.022Z,39.17
2019-05-19T09:41:43.262Z,39.10
2019-05-19T09:44:12.534Z,38.47
2019-05-19T09:46:42.376Z,41.27
2019-05-19T09:49:33.927Z,28.33
2019-05-19T09:52:03.678Z,31.23
2019-05-19T09:54:44.143Z,39.23
2019-05-19T09:57:04.112Z,25.90
2019-05-19T09:59:34.857Z,24.63
2019-05-19T10:02:04.548Z,23.83
2019-05-19T10:04:33.989Z,22.73
2019-05-19T10:07:04.026Z,27.27
2019-05-19T10:10:03.527Z,25.87
2019-05-19T10:12:32.758Z,20.37
2019-05-19T10:15:02.838Z,15.20
2019-05-19T10:17:32.549Z,20.23
2019-05-19T10:20:02.509Z,21.90
2019-05-19T10:22:31.887Z,22.93
2019-05-19T10:25:20.395Z,20.77
2019-05-19T10:27:32.762Z,21.13
2019-05-19T10:30:02.079Z,22.57
2019-05-19T10:32:31.300Z,26.67
2019-05-19T10:35:00.540Z,20.47
2019-05-19T10:37:29.816Z,24.60
2019-05-19T10:39:59.043Z,22.93
2019-05-19T10:42:28.763Z,23.20
2019-05-19T10:44:58.240Z,23.73
2019-05-19T10:47:27.461Z,17.60
2019-05-19T10:49:58.113Z,12.70
2019-05-19T10:52:28.018Z,19.13
2019-05-19T10:54:57.249Z,12.23
2019-05-19T10:57:27.126Z,13.07
2019-05-19T10:59:56.384Z,16.27
2019-05-19T11:02:25.604Z,13.27
2019-05-19T11:04:55.022Z,12.53
2019-05-19T11:07:24.240Z,11.53
2019-05-19T11:09:53.947Z,10.43
2019-05-19T11:12:23.379Z,11.10
2019-05-19T11:14:52.958Z,11.80
2019-05-19T11:17:22.207Z,12.03
2019-05-19T11:19:51.771Z,13.30
2019-05-19T11:22:21.320Z,13.20
2019-05-19T11:24:50.624Z,13.37
2019-05-19T11:27:19.874Z,9.13
2019-05-19T11:29:49.314Z,8.63
2019-05-19T11:32:19.005Z,10.10
2019-05-19T11:34:49.886Z,9.47
2019-05-19T11:37:19.133Z,9.00
2019-05-19T11:39:48.413Z,6.97
2019-05-19T11:42:17.896Z,11.63
2019-05-19T11:44:47.108Z,7.97
2019-05-19T11:47:16.311Z,8.63
2019-05-19T11:49:46.021Z,7.40
2019-05-19T11:52:15.238Z,8.00
2019-05-19T11:54:44.479Z,7.07
2019-05-19T11:57:13.758Z,7.50
2019-05-19T11:59:42.991Z,13.83
2019-05-19T12:02:12.380Z,7.07
2019-05-19T12:04:41.890Z,6.07
2019-05-19T12:07:11.515Z,7.23
2019-05-19T12:09:41.496Z,5.83
2019-05-19T12:12:10.759Z,7.27
2019-05-19T12:14:40.168Z,5.03
2019-05-19T12:17:09.481Z,6.73
2019-05-19T12:19:38.998Z,6.87
2019-05-19T12:22:08.253Z,8.50
2019-05-19T12:24:37.824Z,7.97
2019-05-19T12:27:07.091Z,8.90
2019-05-19T12:29:36.613Z,7.20
2019-05-19T12:32:05.926Z,6.60
2019-05-19T12:34:35.525Z,7.53
2019-05-19T12:37:04.766Z,9.47
2019-05-19T12:39:34.017Z,6.53
2019-05-19T12:42:03.271Z,7.30
2019-05-19T12:44:32.937Z,6.10
2019-05-19T12:47:02.479Z,6.67
2019-05-19T12:49:32.056Z,5.83
2019-05-19T12:52:01.351Z,6.73
2019-05-19T12:54:30.641Z,6.90
2019-05-19T12:57:00.054Z,9.60
2019-05-19T12:59:29.635Z,6.40
2019-05-19T13:01:58.866Z,6.00
2019-05-19T13:04:28.482Z,6.47
2019-05-19T13:06:57.726Z,7.37
2019-05-19T13:09:26.954Z,5.77
2019-05-19T13:11:56.285Z,12.37
2019-05-19T13:14:25.550Z,6.05
2019-05-19T13:16:55.107Z,6.13
2019-05-19T13:19:24.353Z,6.63
2019-05-19T13:21:53.963Z,37.53
2019-05-19T13:24:25.045Z,6.90
2019-05-19T13:26:56.882Z,8.30
2019-05-19T13:29:28.100Z,7.30
2019-05-19T13:31:57.663Z,11.77
2019-05-19T13:34:27.050Z,8.30
2019-05-19T13:36:56.567Z,7.50
2019-05-19T13:39:26.178Z,8.87
2019-05-19T13:41:55.844Z,8.70
2019-05-19T13:44:25.395Z,10.03
2019-05-19T13:46:55.321Z,11.43
2019-05-19T13:49:24.808Z,12.07
2019-05-19T13:51:54.429Z,7.87
2019-05-19T13:54:23.650Z,8.80
2019-05-19T13:56:52.913Z,12.50
2019-05-19T13:59:22.270Z,11.47
2019-05-19T14:01:51.813Z,8.03
2019-05-19T14:04:21.039Z,7.03
2019-05-19T14:06:50.897Z,7.33
2019-05-19T14:09:20.600Z,15.57
2019-05-19T14:11:49.876Z,14.50
2019-05-19T14:14:19.145Z,9.30
2019-05-19T14:16:48.771Z,6.53
2019-05-19T14:19:18.418Z,6.90
2019-05-19T14:21:47.765Z,9.70
2019-05-19T14:24:17.099Z,8.40
2019-05-19T14:26:46.355Z,9.20
2019-05-19T14:29:15.566Z,7.30
2019-05-19T14:31:44.841Z,7.67
2019-05-19T14:34:14.061Z,9.10
2019-05-19T14:36:43.331Z,10.77
2019-05-19T14:39:12.718Z,9.83
2019-05-19T14:41:46.732Z,12.90
2019-05-19T14:44:15.957Z,6.60
2019-05-19T14:46:45.583Z,6.87
2019-05-19T14:49:14.841Z,7.30
2019-05-19T14:51:44.124Z,7.10
2019-05-19T14:54:13.423Z,7.50
2019-05-19T14:56:42.643Z,15.70
2019-05-19T14:59:11.850Z,8.37
2019-05-19T15:01:41.483Z,7.40
2019-05-19T15:04:10.717Z,6.33
2019-05-19T15:06:40.343Z,6.53
2019-05-19T15:09:10.147Z,6.50
2019-05-19T15:11:39.461Z,7.77
2019-05-19T15:14:09.168Z,5.70
2019-05-19T15:16:38.533Z,17.27
2019-05-19T15:19:07.763Z,9.90
2019-05-19T15:21:36.992Z,8.50
2019-05-19T15:24:06.347Z,5.73
2019-05-19T15:26:39.597Z,26.17
2019-05-19T15:29:08.874Z,12.13
2019-05-19T15:31:38.364Z,24.10
2019-05-19T15:34:07.581Z,14.63
2019-05-19T15:36:37.213Z,12.93
2019-05-19T15:39:07.747Z,16.10
2019-05-19T15:41:37.521Z,16.77
2019-05-19T15:44:09.087Z,16.90
2019-05-19T15:46:40.262Z,23.73
2019-05-19T15:49:09.794Z,22.73
2019-05-19T15:51:58.331Z,18.23
2019-05-19T15:54:13.206Z,16.90
2019-05-19T15:56:43.921Z,13.80
2019-05-19T15:59:13.498Z,11.37
2019-05-19T16:01:42.829Z,12.73
2019-05-19T16:04:12.565Z,10.07
2019-05-19T16:06:42.114Z,10.00
2019-05-19T16:09:11.897Z,8.50
2019-05-19T16:11:41.293Z,9.10
2019-05-19T16:14:10.617Z,6.63
2019-05-19T16:16:41.184Z,8.00
2019-05-19T16:19:10.462Z,10.20
2019-05-19T16:21:39.688Z,6.87
2019-05-19T16:24:08.989Z,7.43
2019-05-19T16:26:38.662Z,7.17
2019-05-19T16:29:08.871Z,7.43
2019-05-19T16:31:38.238Z,7.80
2019-05-19T16:34:07.819Z,6.60
2019-05-19T16:36:37.063Z,6.37
2019-05-19T16:39:07.300Z,6.60
2019-05-19T16:41:36.977Z,10.07
2019-05-19T16:44:06.256Z,14.67
2019-05-19T16:46:35.867Z,8.00
2019-05-19T16:49:05.103Z,8.13
2019-05-19T16:51:34.679Z,9.77
2019-05-19T16:54:08.039Z,7.97
2019-05-19T16:56:37.677Z,8.20
2019-05-19T16:59:07.304Z,11.03
2019-05-19T17:01:37.985Z,10.97
2019-05-19T17:04:07.911Z,9.93
2019-05-19T17:06:37.136Z,12.63
2019-05-19T17:09:06.896Z,8.47
2019-05-19T17:11:36.191Z,9.20
2019-05-19T17:14:05.609Z,7.90
2019-05-19T17:16:34.930Z,7.60
2019-05-19T17:19:06.245Z,6.93
2019-05-19T17:21:35.804Z,12.80
2019-05-19T17:24:05.063Z,8.10
2019-05-19T17:26:35.150Z,11.90
2019-05-19T17:29:04.694Z,10.47
2019-05-19T17:31:34.267Z,10.30
2019-05-19T17:34:03.745Z,12.10
2019-05-19T17:36:33.333Z,12.80
2019-05-19T17:39:02.693Z,17.47
2019-05-19T17:41:31.938Z,18.07
2019-05-19T17:44:01.165Z,14.97
2019-05-19T17:46:30.442Z,17.40
2019-05-19T17:49:00.481Z,18.10
2019-05-19T17:51:30.284Z,16.33
2019-05-19T17:54:01.410Z,16.97
2019-05-19T17:56:31.308Z,17.70
2019-05-19T17:59:14.530Z,16.63
2019-05-19T18:01:32.628Z,14.20
2019-05-19T18:04:01.864Z,16.97
2019-05-19T18:06:31.100Z,19.27
2019-05-19T18:09:01.158Z,16.70
2019-05-19T18:11:30.398Z,20.43
2019-05-19T18:14:01.374Z,19.37
2019-05-19T18:16:30.778Z,17.90
2019-05-19T18:19:01.227Z,19.40
2019-05-19T18:21:30.821Z,20.13
2019-05-19T18:24:01.016Z,21.50
2019-05-19T18:26:30.854Z,18.93
2019-05-19T18:29:02.221Z,21.93
2019-05-19T18:31:31.479Z,24.70
2019-05-19T18:34:00.720Z,19.87
2019-05-19T18:36:30.500Z,21.17
2019-05-19T18:39:00.046Z,21.63
2019-05-19T18:41:29.321Z,20.60
2019-05-19T18:43:59.434Z,17.97
2019-05-19T18:46:28.664Z,20.82
2019-05-19T18:48:58.668Z,20.70
2019-05-19T18:51:28.149Z,27.50
2019-05-19T18:53:57.692Z,31.67
2019-05-19T18:56:26.979Z,25.90
2019-05-19T18:58:56.227Z,25.37
2019-05-19T19:01:25.523Z,25.30
2019-05-19T19:03:54.808Z,28.33
2019-05-19T19:06:24.689Z,29.43
2019-05-19T19:09:14.574Z,24.90
2019-05-19T19:11:43.832Z,18.80
2019-05-19T19:14:13.480Z,20.40
2019-05-19T19:16:42.691Z,20.27
2019-05-19T19:19:11.958Z,18.60
2019-05-19T19:21:41.229Z,20.77
2019-05-19T19:24:10.456Z,23.40
2019-05-19T19:26:41.859Z,29.43
2019-05-19T19:29:11.101Z,26.83
2019-05-19T19:31:48.730Z,28.20
2019-05-19T19:34:12.044Z,23.90
2019-05-19T19:36:41.931Z,24.00
2019-05-19T19:39:11.196Z,29.97
2019-05-19T19:41:40.390Z,27.13
2019-05-19T19:44:10.345Z,30.03
2019-05-19T19:46:40.264Z,26.57
2019-05-19T19:49:09.793Z,28.67
2019-05-19T19:51:39.086Z,29.90
2019-05-19T19:54:08.686Z,33.67
2019-05-19T19:56:38.474Z,26.13
2019-05-19T19:59:07.965Z,24.57
2019-05-19T20:01:38.233Z,29.60
2019-05-19T20:04:07.866Z,32.33
2019-05-19T20:06:37.331Z,29.67
2019-05-19T20:09:07.364Z,30.90
2019-05-19T20:11:37.005Z,28.07
2019-05-19T20:14:06.783Z,27.33
2019-05-19T20:16:36.029Z,26.87
2019-05-19T20:19:05.262Z,31.40
2019-05-19T20:21:34.559Z,31.27
2019-05-19T20:24:04.508Z,31.83
2019-05-19T20:26:33.722Z,36.77
2019-05-19T20:29:03.654Z,32.23
2019-05-19T20:31:32.941Z,31.37
2019-05-19T20:34:02.173Z,27.57
2019-05-19T20:36:31.394Z,29.20
2019-05-19T20:39:00.703Z,29.80
2019-05-19T20:41:30.336Z,33.33
2019-05-19T20:43:59.929Z,27.90
2019-05-19T20:46:29.571Z,26.90
2019-05-19T20:48:58.806Z,34.17
2019-05-19T20:51:28.477Z,32.90
2019-05-19T20:53:57.696Z,30.73
2019-05-19T20:56:26.977Z,25.57
2019-05-19T20:58:56.877Z,26.80
2019-05-19T21:01:26.469Z,29.50
2019-05-19T21:03:55.729Z,28.57
2019-05-19T21:06:26.063Z,29.47
2019-05-19T21:08:55.700Z,29.27
2019-05-19T21:11:24.971Z,34.47
2019-05-19T21:13:54.300Z,28.83
2019-05-19T21:16:23.865Z,33.80
2019-05-19T21:18:53.108Z,30.53
2019-05-19T21:21:23.053Z,31.00
2019-05-19T21:23:52.530Z,34.53
2019-05-19T21:26:22.060Z,55.73
2019-05-19T21:28:51.672Z,41.20
2019-05-19T21:31:21.188Z,39.40
2019-05-19T21:33:50.431Z,34.90
2019-05-19T21:36:20.026Z,30.10
2019-05-19T21:38:49.300Z,32.37
2019-05-19T21:41:18.531Z,50.57
2019-05-19T21:43:48.500Z,57.07
2019-05-19T21:46:17.746Z,35.28
2019-05-19T21:48:46.985Z,35.37
2019-05-19T21:51:16.506Z,34.43
2019-05-19T21:53:46.090Z,36.17
2019-05-19T21:56:15.316Z,37.20
2019-05-19T21:58:45.027Z,36.63
2019-05-19T22:01:22.940Z,39.80
2019-05-19T22:03:45.249Z,47.77
2019-05-19T22:06:15.193Z,47.67
2019-05-19T22:08:44.437Z,44.80
2019-05-19T22:11:14.100Z,46.87
2019-05-19T22:13:43.467Z,50.73
2019-05-19T22:16:13.902Z,45.77
2019-05-19T22:18:43.950Z,58.30
2019-05-19T22:21:13.175Z,49.80
2019-05-19T22:23:42.423Z,51.93
2019-05-19T22:26:11.655Z,58.93
2019-05-19T22:28:41.257Z,53.93
2019-05-19T22:31:10.874Z,56.67
2019-05-19T22:33:40.366Z,59.03
2019-05-19T22:36:09.599Z,52.90
2019-05-19T22:38:38.829Z,64.37
2019-05-19T22:41:08.069Z,57.73
2019-05-19T22:43:39.515Z,58.20
2019-05-19T22:46:08.835Z,57.60
2019-05-19T22:48:38.083Z,63.60
2019-05-19T22:51:07.632Z,64.77
2019-05-19T22:53:36.920Z,63.27
2019-05-19T22:56:06.458Z,68.70
2019-05-19T22:58:35.768Z,62.37
2019-05-19T23:01:05.070Z,58.63
2019-05-19T23:03:34.311Z,51.33
2019-05-19T23:06:03.962Z,56.40
2019-05-19T23:08:34.244Z,62.20
2019-05-19T23:11:03.480Z,54.53
2019-05-19T23:13:32.788Z,57.47
2019-05-19T23:16:02.014Z,56.20
2019-05-19T23:18:32.009Z,60.40
2019-05-19T23:21:01.825Z,64.63
2019-05-19T23:23:31.038Z,57.37
2019-05-19T23:26:00.267Z,60.43
2019-05-19T23:28:29.696Z,63.07
2019-05-19T23:30:58.927Z,62.00
2019-05-19T23:33:28.198Z,63.03
2019-05-19T23:35:57.615Z,70.13
2019-05-19T23:38:27.257Z,76.47
2019-05-19T23:40:56.841Z,69.77
2019-05-19T23:43:26.536Z,83.67
2019-05-19T23:45:56.125Z,83.47
2019-05-19T23:48:26.347Z,90.40
2019-05-19T23:50:55.667Z,96.53
2019-05-19T23:53:24.905Z,91.00
2019-05-19T23:55:54.137Z,97.53
2019-05-19T23:58:23.785Z,94.47
